createdAt,value
2018-11-10T00:02:22.351Z,16.90
2018-11-10T00:04:50.929Z,16.03
2018-11-10T00:07:19.563Z,17.03
2018-11-10T00:09:48.270Z,17.30
2018-11-10T00:12:16.951Z,17.27
2018-11-10T00:14:45.608Z,17.57
2018-11-10T00:17:14.179Z,17.50
2018-11-10T00:19:42.727Z,17.17
2018-11-10T00:22:11.263Z,17.43
2018-11-10T00:24:39.878Z,17.87
2018-11-10T00:27:08.465Z,16.43
2018-11-10T00:29:37.026Z,18.27
2018-11-10T00:32:06.298Z,18.03
2018-11-10T00:34:35.029Z,17.67
2018-11-10T00:37:03.541Z,17.53
2018-11-10T00:39:32.120Z,18.80
2018-11-10T00:42:00.672Z,18.33
2018-11-10T00:44:29.302Z,19.10
2018-11-10T00:46:57.882Z,19.63
2018-11-10T00:49:26.442Z,19.80
2018-11-10T00:51:55.044Z,19.97
2018-11-10T00:54:23.733Z,19.70
2018-11-10T00:56:52.326Z,20.17
2018-11-10T00:59:21.524Z,20.60
2018-11-10T01:01:50.120Z,20.27
2018-11-10T01:04:18.884Z,21.10
2018-11-10T01:06:47.439Z,21.30
2018-11-10T01:09:15.982Z,21.23
2018-11-10T01:11:44.607Z,21.07
2018-11-10T01:14:13.245Z,20.57
2018-11-10T01:16:41.817Z,21.10
2018-11-10T01:19:10.358Z,22.47
2018-11-10T01:21:38.931Z,22.33
2018-11-10T01:24:07.544Z,23.97
2018-11-10T01:26:36.111Z,23.40
2018-11-10T01:29:05.308Z,22.13
2018-11-10T01:31:33.927Z,22.77
2018-11-10T01:34:02.547Z,23.30
2018-11-10T01:36:31.084Z,22.20
2018-11-10T01:39:01.491Z,20.83
2018-11-10T01:41:30.660Z,21.40
2018-11-10T01:43:59.179Z,21.67
2018-11-10T01:46:27.752Z,21.87
2018-11-10T01:48:56.326Z,20.57
2018-11-10T01:51:24.893Z,21.47
2018-11-10T01:53:53.650Z,21.03
2018-11-10T01:56:22.203Z,20.70
2018-11-10T01:58:50.737Z,20.37
2018-11-10T02:01:19.298Z,20.50
2018-11-10T02:03:47.820Z,20.23
2018-11-10T02:06:16.834Z,19.47
2018-11-10T02:08:45.395Z,19.23
2018-11-10T02:11:14.006Z,20.13
2018-11-10T02:13:42.616Z,19.20
2018-11-10T02:16:11.158Z,17.73
2018-11-10T02:18:39.788Z,18.47
2018-11-10T02:21:08.441Z,17.60
2018-11-10T02:23:37.004Z,18.00
2018-11-10T02:26:05.655Z,18.07
2018-11-10T02:28:34.304Z,17.13
2018-11-10T02:31:02.987Z,17.93
2018-11-10T02:33:31.556Z,17.10
2018-11-10T02:36:00.083Z,16.33
2018-11-10T02:38:28.676Z,18.47
2018-11-10T02:40:57.224Z,17.67
2018-11-10T02:43:25.776Z,18.37
2018-11-10T02:45:54.319Z,17.27
2018-11-10T02:48:22.922Z,18.30
2018-11-10T02:50:51.810Z,19.17
2018-11-10T02:53:20.359Z,19.40
2018-11-10T02:55:48.928Z,18.43
2018-11-10T02:58:17.503Z,18.47
2018-11-10T03:00:46.123Z,18.20
2018-11-10T03:03:14.668Z,17.13
2018-11-10T03:05:43.222Z,17.47
2018-11-10T03:08:11.799Z,17.00
2018-11-10T03:10:40.326Z,18.17
2018-11-10T03:13:08.859Z,19.23
2018-11-10T03:15:37.378Z,17.77
2018-11-10T03:18:05.960Z,18.10
2018-11-10T03:20:34.568Z,18.33
2018-11-10T03:23:03.114Z,17.83
2018-11-10T03:25:31.702Z,17.00
2018-11-10T03:28:00.263Z,16.13
2018-11-10T03:30:28.783Z,15.97
2018-11-10T03:32:57.600Z,16.67
2018-11-10T03:35:26.139Z,15.83
2018-11-10T03:37:54.675Z,15.10
2018-11-10T03:40:23.219Z,14.57
2018-11-10T03:42:51.758Z,14.77
2018-11-10T03:45:20.294Z,13.70
2018-11-10T03:47:48.880Z,14.67
2018-11-10T03:50:17.506Z,13.43
2018-11-10T03:52:46.034Z,12.87
2018-11-10T03:55:14.567Z,12.33
2018-11-10T03:57:43.111Z,11.33
2018-11-10T04:00:13.220Z,11.67
2018-11-10T04:02:43.359Z,11.67
2018-11-10T04:05:12.915Z,11.27
2018-11-10T04:07:42.765Z,10.07
2018-11-10T04:10:11.932Z,11.00
2018-11-10T04:12:40.621Z,10.90
2018-11-10T04:15:09.191Z,11.50
2018-11-10T04:17:37.966Z,11.93
2018-11-10T04:20:07.882Z,12.27
2018-11-10T04:22:37.412Z,11.23
2018-11-10T04:25:08.586Z,11.00
2018-11-10T04:27:37.193Z,12.10
2018-11-10T04:30:07.283Z,12.30
2018-11-10T04:32:36.639Z,12.10
2018-11-10T04:35:05.888Z,11.80
2018-11-10T04:37:34.415Z,11.33
2018-11-10T04:40:02.983Z,11.60
2018-11-10T04:42:31.527Z,12.43
2018-11-10T04:45:00.067Z,12.93
2018-11-10T04:47:28.631Z,14.03
2018-11-10T04:49:57.289Z,14.50
2018-11-10T04:52:25.778Z,14.73
2018-11-10T04:54:54.475Z,14.60
2018-11-10T04:57:23.110Z,15.13
2018-11-10T04:59:51.698Z,15.93
2018-11-10T05:02:20.235Z,16.20
2018-11-10T05:04:48.769Z,17.77
2018-11-10T05:07:17.379Z,17.50
2018-11-10T05:09:45.903Z,18.20
2018-11-10T05:12:14.449Z,18.67
2018-11-10T05:14:42.996Z,17.93
2018-11-10T05:17:11.548Z,18.70
2018-11-10T05:19:40.050Z,18.43
2018-11-10T05:22:08.668Z,19.40
2018-11-10T05:24:37.269Z,18.30
2018-11-10T05:27:06.123Z,18.37
2018-11-10T05:29:34.692Z,17.80
2018-11-10T05:32:03.273Z,17.77
2018-11-10T05:34:31.951Z,17.80
2018-11-10T05:37:00.602Z,18.20
2018-11-10T05:39:29.127Z,20.57
2018-11-10T05:41:57.636Z,20.00
2018-11-10T05:44:26.195Z,20.80
2018-11-10T05:46:54.823Z,20.97
2018-11-10T05:49:23.370Z,22.57
2018-11-10T05:51:51.921Z,23.43
2018-11-10T05:54:20.470Z,23.57
2018-11-10T05:56:49.022Z,23.23
2018-11-10T05:59:17.576Z,25.70
2018-11-10T06:01:46.311Z,24.40
2018-11-10T06:04:14.887Z,24.83
2018-11-10T06:06:43.493Z,25.43
2018-11-10T06:09:12.164Z,24.07
2018-11-10T06:11:41.242Z,25.87
2018-11-10T06:14:09.762Z,25.53
2018-11-10T06:16:38.294Z,26.20
2018-11-10T06:19:07.058Z,26.23
2018-11-10T06:21:35.595Z,27.17
2018-11-10T06:24:04.200Z,27.23
2018-11-10T06:26:32.783Z,28.23
2018-11-10T06:29:01.433Z,27.50
2018-11-10T06:31:29.973Z,25.47
2018-11-10T06:33:58.536Z,26.10
2018-11-10T06:36:27.068Z,26.37
2018-11-10T06:38:55.667Z,27.47
2018-11-10T06:41:24.266Z,27.30
2018-11-10T06:43:52.791Z,28.30
2018-11-10T06:46:21.369Z,28.90
2018-11-10T06:48:49.924Z,26.77
2018-11-10T06:51:18.469Z,28.83
2018-11-10T06:53:47.035Z,27.57
2018-11-10T06:56:15.559Z,28.10
2018-11-10T06:58:44.090Z,28.47
2018-11-10T07:01:12.646Z,28.30
2018-11-10T07:03:41.297Z,29.60
2018-11-10T07:06:09.868Z,28.60
2018-11-10T07:08:38.418Z,28.60
2018-11-10T07:11:07.103Z,27.57
2018-11-10T07:13:35.637Z,28.40
2018-11-10T07:16:04.336Z,29.33
2018-11-10T07:18:32.885Z,26.40
2018-11-10T07:21:01.399Z,28.77
2018-11-10T07:23:30.026Z,29.57
2018-11-10T07:25:58.592Z,29.10
2018-11-10T07:28:27.888Z,31.03
2018-11-10T07:30:56.611Z,30.17
2018-11-10T07:33:25.159Z,29.70
2018-11-10T07:35:53.697Z,31.00
2018-11-10T07:38:22.253Z,28.70
2018-11-10T07:40:50.794Z,28.87
2018-11-10T07:43:19.320Z,31.37
2018-11-10T07:45:47.922Z,30.47
2018-11-10T07:48:16.470Z,32.00
2018-11-10T07:50:45.022Z,33.27
2018-11-10T07:53:13.642Z,31.70
2018-11-10T07:55:42.193Z,32.23
2018-11-10T07:58:10.757Z,31.63
2018-11-10T08:00:39.290Z,33.20
2018-11-10T08:03:07.856Z,31.77
2018-11-10T08:05:36.440Z,33.30
2018-11-10T08:08:11.912Z,31.87
2018-11-10T08:10:40.470Z,32.80
2018-11-10T08:13:09.002Z,33.10
2018-11-10T08:15:37.534Z,33.03
2018-11-10T08:18:06.276Z,32.90
2018-11-10T08:20:34.856Z,33.03
2018-11-10T08:23:03.556Z,34.10
2018-11-10T08:25:32.109Z,34.47
2018-11-10T08:28:00.660Z,34.83
2018-11-10T08:30:29.188Z,31.90
2018-11-10T08:32:58.104Z,33.83
2018-11-10T08:35:26.644Z,33.03
2018-11-10T08:37:55.171Z,32.30
2018-11-10T08:40:23.754Z,32.00
2018-11-10T08:42:52.298Z,33.10
2018-11-10T08:45:20.847Z,32.70
2018-11-10T08:47:49.404Z,32.03
2018-11-10T08:50:18.033Z,32.63
2018-11-10T08:52:46.590Z,32.83
2018-11-10T08:55:15.174Z,32.33
2018-11-10T08:57:44.175Z,31.67
2018-11-10T09:00:13.019Z,30.03
2018-11-10T09:02:41.624Z,32.20
2018-11-10T09:05:11.429Z,31.23
2018-11-10T09:07:40.233Z,31.27
2018-11-10T09:10:10.326Z,30.47
2018-11-10T09:12:38.890Z,30.87
2018-11-10T09:15:09.687Z,30.47
2018-11-10T09:17:38.216Z,30.03
2018-11-10T09:20:09.263Z,31.00
2018-11-10T09:22:37.811Z,30.70
2018-11-10T09:25:08.277Z,31.50
2018-11-10T09:27:36.867Z,30.27
2018-11-10T09:30:05.722Z,30.47
2018-11-10T09:32:34.234Z,30.73
2018-11-10T09:35:02.769Z,29.00
2018-11-10T09:37:31.333Z,30.50
2018-11-10T09:39:59.881Z,27.93
2018-11-10T09:42:28.583Z,28.30
2018-11-10T09:44:57.055Z,29.13
2018-11-10T09:47:25.627Z,27.00
2018-11-10T09:49:54.303Z,29.03
2018-11-10T09:52:22.851Z,27.83
2018-11-10T09:54:51.395Z,26.40
2018-11-10T09:57:20.024Z,27.87
2018-11-10T09:59:48.592Z,27.47
2018-11-10T10:02:17.858Z,26.50
2018-11-10T10:04:46.161Z,28.20
2018-11-10T10:07:14.714Z,26.50
2018-11-10T10:09:43.268Z,26.87
2018-11-10T10:12:11.828Z,27.43
2018-11-10T10:14:40.426Z,25.83
2018-11-10T10:17:08.980Z,27.30
2018-11-10T10:19:37.544Z,25.90
2018-11-10T10:22:06.307Z,26.50
2018-11-10T10:24:34.941Z,25.93
2018-11-10T10:27:03.463Z,25.43
2018-11-10T10:29:32.061Z,26.20
2018-11-10T10:32:00.871Z,25.83
2018-11-10T10:34:29.603Z,26.17
2018-11-10T10:36:58.096Z,26.47
2018-11-10T10:39:26.826Z,27.33
2018-11-10T10:41:55.386Z,27.63
2018-11-10T10:44:23.955Z,27.70
2018-11-10T10:46:52.536Z,28.67
2018-11-10T10:49:21.128Z,27.73
2018-11-10T10:51:49.673Z,27.27
2018-11-10T10:54:18.228Z,26.37
2018-11-10T10:56:46.828Z,26.63
2018-11-10T10:59:15.351Z,27.53
2018-11-10T11:01:49.576Z,27.13
2018-11-10T11:04:23.339Z,28.53
2018-11-10T11:06:52.057Z,27.50
2018-11-10T11:09:20.668Z,27.43
2018-11-10T11:11:49.368Z,25.57
2018-11-10T11:14:17.920Z,25.40
2018-11-10T11:16:46.463Z,25.87
2018-11-10T11:19:15.400Z,25.60
2018-11-10T11:21:44.102Z,24.83
2018-11-10T11:24:12.679Z,24.57
2018-11-10T11:26:41.271Z,25.07
2018-11-10T11:29:09.926Z,25.23
2018-11-10T11:31:38.508Z,25.73
2018-11-10T11:34:07.113Z,24.23
2018-11-10T11:36:35.680Z,25.87
2018-11-10T11:39:05.912Z,25.13
2018-11-10T11:41:34.785Z,24.67
2018-11-10T11:44:03.144Z,22.90
2018-11-10T11:46:31.700Z,23.37
2018-11-10T11:49:00.844Z,22.53
2018-11-10T11:51:29.409Z,23.73
2018-11-10T11:53:58.018Z,23.67
2018-11-10T11:56:26.572Z,23.50
2018-11-10T11:58:55.134Z,24.53
2018-11-10T12:01:23.803Z,24.17
2018-11-10T12:03:52.334Z,22.80
2018-11-10T12:06:20.872Z,23.27
2018-11-10T12:08:49.595Z,23.10
2018-11-10T12:11:18.211Z,23.17
2018-11-10T12:13:46.971Z,23.00
2018-11-10T12:16:27.192Z,24.50
2018-11-10T12:18:44.398Z,26.07
2018-11-10T12:21:13.358Z,25.10
2018-11-10T12:23:42.004Z,26.23
2018-11-10T12:26:10.550Z,23.97
2018-11-10T12:28:39.220Z,24.63
2018-11-10T12:31:07.911Z,25.53
2018-11-10T12:33:36.761Z,24.40
2018-11-10T12:36:05.486Z,25.23
2018-11-10T12:38:34.378Z,25.27
2018-11-10T12:41:03.211Z,25.10
2018-11-10T12:43:34.693Z,25.67
2018-11-10T12:46:03.268Z,23.70
2018-11-10T12:48:31.822Z,24.17
2018-11-10T12:51:01.164Z,23.60
2018-11-10T12:53:29.709Z,25.10
2018-11-10T12:55:58.264Z,24.50
2018-11-10T12:58:26.834Z,24.10
2018-11-10T13:00:55.423Z,24.90
2018-11-10T13:03:23.963Z,24.13
2018-11-10T13:05:52.478Z,23.87
2018-11-10T13:08:21.143Z,23.87
2018-11-10T13:10:49.714Z,26.27
2018-11-10T13:13:18.303Z,25.27
2018-11-10T13:15:46.829Z,25.77
2018-11-10T13:18:15.345Z,25.43
2018-11-10T13:20:43.907Z,25.13
2018-11-10T13:23:12.447Z,25.20
2018-11-10T13:25:41.012Z,25.23
2018-11-10T13:28:09.536Z,25.40
2018-11-10T13:30:38.095Z,25.13
2018-11-10T13:33:07.412Z,25.90
2018-11-10T13:35:35.944Z,24.80
2018-11-10T13:38:04.621Z,25.43
2018-11-10T13:40:33.223Z,24.50
2018-11-10T13:43:02.145Z,25.53
2018-11-10T13:45:30.674Z,25.60
2018-11-10T13:47:59.259Z,26.27
2018-11-10T13:50:27.846Z,24.53
2018-11-10T13:52:56.783Z,25.83
2018-11-10T13:55:25.052Z,26.47
2018-11-10T13:57:53.642Z,25.23
2018-11-10T14:00:22.221Z,25.43
2018-11-10T14:02:50.794Z,25.47
2018-11-10T14:05:19.464Z,26.30
2018-11-10T14:07:48.020Z,24.80
2018-11-10T14:10:16.869Z,24.70
2018-11-10T14:12:46.329Z,26.10
2018-11-10T14:15:14.844Z,25.57
2018-11-10T14:17:43.880Z,27.53
2018-11-10T14:20:13.934Z,26.20
2018-11-10T14:22:42.589Z,24.13
2018-11-10T14:25:12.676Z,25.43
2018-11-10T14:27:42.140Z,25.13
2018-11-10T14:30:12.772Z,26.43
2018-11-10T14:32:42.071Z,25.17
2018-11-10T14:35:11.285Z,24.43
2018-11-10T14:37:39.926Z,25.77
2018-11-10T14:40:10.703Z,25.20
2018-11-10T14:42:39.990Z,27.00
2018-11-10T14:45:10.275Z,26.03
2018-11-10T14:47:39.527Z,25.97
2018-11-10T14:50:09.650Z,25.70
2018-11-10T14:52:38.491Z,26.17
2018-11-10T14:55:07.890Z,26.37
2018-11-10T14:57:36.674Z,26.90
2018-11-10T15:00:24.775Z,26.83
2018-11-10T15:02:53.396Z,26.30
2018-11-10T15:05:22.052Z,26.13
2018-11-10T15:07:50.702Z,26.77
2018-11-10T15:10:19.433Z,26.93
2018-11-10T15:12:48.421Z,26.00
2018-11-10T15:15:17.997Z,27.13
2018-11-10T15:17:46.976Z,26.03
2018-11-10T15:20:17.653Z,26.70
2018-11-10T15:22:46.421Z,27.27
2018-11-10T15:25:16.384Z,26.60
2018-11-10T15:27:44.997Z,27.20
2018-11-10T15:30:15.183Z,26.07
2018-11-10T15:32:44.749Z,27.00
2018-11-10T15:35:14.351Z,26.90
2018-11-10T15:37:44.113Z,25.47
2018-11-10T15:40:13.775Z,26.60
2018-11-10T15:42:42.529Z,26.07
2018-11-10T15:45:12.385Z,26.70
2018-11-10T15:47:41.448Z,26.57
2018-11-10T15:50:11.731Z,27.50
2018-11-10T15:52:40.285Z,26.27
2018-11-10T15:55:10.192Z,26.87
2018-11-10T15:57:39.364Z,27.07
2018-11-10T16:00:11.576Z,25.70
2018-11-10T16:02:40.480Z,26.80
2018-11-10T16:05:09.644Z,26.27
2018-11-10T16:07:38.444Z,26.87
2018-11-10T16:10:07.644Z,26.60
2018-11-10T16:12:36.981Z,25.50
2018-11-10T16:15:07.544Z,25.60
2018-11-10T16:17:36.064Z,25.00
2018-11-10T16:20:05.099Z,25.03
2018-11-10T16:22:33.700Z,26.70
2018-11-10T16:25:02.321Z,25.47
2018-11-10T16:27:30.887Z,25.87
2018-11-10T16:29:59.504Z,27.00
2018-11-10T16:32:28.260Z,27.20
2018-11-10T16:34:56.872Z,27.53
2018-11-10T16:37:25.548Z,26.33
2018-11-10T16:39:54.140Z,26.37
2018-11-10T16:42:22.794Z,26.60
2018-11-10T16:44:58.152Z,27.53
2018-11-10T16:47:26.852Z,26.03
2018-11-10T16:49:55.404Z,27.17
2018-11-10T16:52:24.079Z,27.03
2018-11-10T16:54:52.645Z,28.53
2018-11-10T16:57:21.258Z,29.07
2018-11-10T16:59:49.852Z,28.83
2018-11-10T17:02:18.430Z,29.70
2018-11-10T17:04:47.179Z,30.70
2018-11-10T17:07:15.892Z,31.03
2018-11-10T17:09:44.424Z,29.33
2018-11-10T17:12:13.227Z,29.43
2018-11-10T17:14:41.880Z,29.50
2018-11-10T17:17:10.585Z,28.70
2018-11-10T17:19:39.189Z,28.30
2018-11-10T17:22:08.092Z,28.60
2018-11-10T17:24:36.769Z,25.93
2018-11-10T17:27:06.238Z,27.47
2018-11-10T17:29:34.756Z,28.30
2018-11-10T17:32:03.397Z,27.60
2018-11-10T17:34:32.031Z,28.30
2018-11-10T17:37:00.579Z,27.67
2018-11-10T17:39:29.176Z,27.03
2018-11-10T17:41:57.914Z,27.57
2018-11-10T17:44:26.444Z,29.70
2018-11-10T17:46:54.942Z,28.73
2018-11-10T17:49:23.576Z,27.57
2018-11-10T17:51:52.137Z,26.87
2018-11-10T17:54:20.712Z,25.67
2018-11-10T17:56:49.313Z,27.20
2018-11-10T17:59:17.854Z,27.27
2018-11-10T18:01:46.546Z,27.63
2018-11-10T18:04:14.955Z,27.33
2018-11-10T18:06:43.682Z,27.87
2018-11-10T18:09:12.771Z,27.33
2018-11-10T18:11:41.712Z,28.10
2018-11-10T18:14:10.267Z,28.17
2018-11-10T18:16:38.803Z,28.83
2018-11-10T18:19:08.434Z,30.83
2018-11-10T18:21:36.912Z,30.97
2018-11-10T18:24:06.063Z,31.43
2018-11-10T18:26:34.665Z,32.40
2018-11-10T18:29:03.295Z,31.77
2018-11-10T18:31:31.903Z,34.87
2018-11-10T18:34:00.534Z,33.70
2018-11-10T18:36:29.170Z,33.33
2018-11-10T18:38:57.745Z,34.03
2018-11-10T18:41:26.408Z,33.20
2018-11-10T18:43:54.963Z,32.30
2018-11-10T18:46:23.564Z,33.33
2018-11-10T18:48:52.144Z,33.07
2018-11-10T18:51:20.734Z,32.73
2018-11-10T18:53:49.317Z,32.63
2018-11-10T18:56:17.927Z,30.93
2018-11-10T18:58:46.424Z,32.63
2018-11-10T19:01:15.098Z,31.93
2018-11-10T19:03:43.631Z,32.67
2018-11-10T19:06:12.196Z,29.83
2018-11-10T19:08:40.814Z,29.97
2018-11-10T19:11:09.365Z,32.03
2018-11-10T19:13:38.392Z,30.13
2018-11-10T19:16:07.118Z,31.87
2018-11-10T19:18:35.680Z,31.30
2018-11-10T19:21:04.399Z,30.80
2018-11-10T19:23:32.985Z,30.37
2018-11-10T19:26:01.682Z,29.93
2018-11-10T19:28:30.289Z,31.10
2018-11-10T19:30:58.926Z,31.30
2018-11-10T19:33:28.207Z,30.30
2018-11-10T19:35:56.898Z,30.00
2018-11-10T19:38:25.474Z,31.40
2018-11-10T19:40:54.056Z,30.70
2018-11-10T19:43:22.612Z,31.63
2018-11-10T19:45:51.344Z,30.83
2018-11-10T19:48:19.916Z,29.83
2018-11-10T19:50:48.603Z,30.20
2018-11-10T19:53:17.100Z,30.70
2018-11-10T19:55:45.695Z,30.17
2018-11-10T19:58:14.242Z,30.77
2018-11-10T20:00:42.922Z,30.27
2018-11-10T20:03:11.520Z,30.17
2018-11-10T20:05:40.124Z,31.07
2018-11-10T20:08:08.831Z,30.20
2018-11-10T20:10:37.471Z,30.77
2018-11-10T20:13:06.344Z,30.30
2018-11-10T20:15:34.918Z,30.60
2018-11-10T20:18:03.518Z,32.27
2018-11-10T20:20:32.075Z,31.47
2018-11-10T20:23:00.620Z,31.57
2018-11-10T20:25:29.372Z,30.87
2018-11-10T20:27:58.036Z,31.43
2018-11-10T20:30:26.613Z,31.20
2018-11-10T20:32:55.164Z,30.83
2018-11-10T20:35:23.803Z,31.67
2018-11-10T20:37:52.388Z,31.37
2018-11-10T20:40:21.044Z,32.87
2018-11-10T20:42:49.630Z,30.63
2018-11-10T20:45:20.080Z,31.87
2018-11-10T20:47:48.658Z,31.17
2018-11-10T20:50:17.742Z,31.33
2018-11-10T20:52:52.625Z,33.23
2018-11-10T20:55:21.205Z,31.73
2018-11-10T20:57:49.778Z,32.33
2018-11-10T21:00:19.888Z,32.30
2018-11-10T21:02:48.356Z,32.20
2018-11-10T21:05:17.292Z,32.50
2018-11-10T21:07:45.868Z,32.37
2018-11-10T21:10:16.382Z,33.37
2018-11-10T21:12:45.704Z,33.00
2018-11-10T21:15:14.863Z,33.37
2018-11-10T21:17:43.511Z,32.90
2018-11-10T21:20:12.885Z,33.50
2018-11-10T21:22:41.427Z,33.17
2018-11-10T21:25:11.984Z,33.60
2018-11-10T21:27:41.942Z,33.27
2018-11-10T21:30:12.221Z,34.07
2018-11-10T21:32:40.824Z,35.23
2018-11-10T21:35:10.000Z,34.33
2018-11-10T21:37:38.886Z,33.57
2018-11-10T21:40:13.418Z,34.83
2018-11-10T21:42:42.875Z,35.47
2018-11-10T21:45:12.626Z,34.90
2018-11-10T21:47:41.529Z,33.93
2018-11-10T21:50:20.768Z,35.23
2018-11-10T21:52:49.401Z,35.53
2018-11-10T21:55:19.368Z,34.90
2018-11-10T21:57:48.559Z,34.47
2018-11-10T22:00:18.955Z,34.50
2018-11-10T22:02:47.867Z,35.77
2018-11-10T22:05:16.511Z,35.20
2018-11-10T22:07:45.094Z,36.23
2018-11-10T22:10:15.079Z,35.73
2018-11-10T22:12:44.168Z,36.83
2018-11-10T22:15:15.312Z,36.17
2018-11-10T22:17:44.788Z,35.37
2018-11-10T22:20:15.644Z,34.23
2018-11-10T22:22:44.241Z,36.30
2018-11-10T22:25:13.533Z,37.33
2018-11-10T22:27:43.555Z,37.97
2018-11-10T22:30:14.587Z,36.13
2018-11-10T22:32:43.928Z,37.63
2018-11-10T22:35:12.777Z,37.10
2018-11-10T22:37:41.570Z,38.63
2018-11-10T22:40:12.538Z,38.43
2018-11-10T22:42:41.599Z,37.03
2018-11-10T22:45:12.031Z,37.40
2018-11-10T22:47:41.263Z,37.90
2018-11-10T22:50:12.807Z,39.17
2018-11-10T22:52:44.906Z,39.13
2018-11-10T22:55:13.680Z,39.90
2018-11-10T22:57:42.536Z,40.57
2018-11-10T23:00:16.545Z,40.00
2018-11-10T23:02:47.602Z,39.73
2018-11-10T23:05:16.676Z,39.40
2018-11-10T23:07:45.232Z,38.90
2018-11-10T23:10:14.474Z,40.53
2018-11-10T23:12:43.959Z,39.47
2018-11-10T23:15:12.658Z,42.03
2018-11-10T23:17:41.557Z,40.63
2018-11-10T23:20:12.275Z,41.53
2018-11-10T23:22:40.892Z,40.00
2018-11-10T23:25:11.840Z,41.07
2018-11-10T23:27:40.385Z,39.80
2018-11-10T23:30:15.352Z,41.47
2018-11-10T23:32:43.956Z,42.33
2018-11-10T23:35:13.001Z,42.97
2018-11-10T23:37:41.824Z,42.50
2018-11-10T23:40:12.699Z,42.77
2018-11-10T23:42:41.971Z,42.67
2018-11-10T23:45:11.553Z,42.47
2018-11-10T23:47:40.327Z,43.03
2018-11-10T23:50:11.537Z,41.83
2018-11-10T23:52:40.463Z,43.17
2018-11-10T23:55:10.935Z,41.77
2018-11-10T23:57:39.657Z,43.23
